Emporia, Kansas
Current Conditions -  °F | °C
As of 8:53 PM on Tuesday 25 Nov 2014 (Local Time) from KEMP Reporting Station
Scattered Clouds Scattered Clouds  
Wind Chill: 31°   Ceiling: Unl
Heat Index: 39°   Visibility: 10mi
Dew Point: 24°   Wind: 15mph
Humidity: 55%   Direction: 160°SSE
Pressure: 29.99"   Gusts: NA
Location:  38.41°N, 96.18°W
Report Text: KEMP 260253Z AUTO 16013KT 10SM SCT100 04/M04 A2999 RMK AO2 SLP167 T00391044 58018
Loading
Personal Weather Stations






























Interactive Weather Map New forecast layout! Learn more

10-Day Weather Forecast

Advertisements
Track Severe Weather on mobile